createdAt,value
2022-11-03T00:01:37.723Z,1.67
2022-11-03T00:04:06.252Z,2.28
2022-11-03T00:06:34.523Z,2.47
2022-11-03T00:09:04.759Z,1.98
2022-11-03T00:11:33.912Z,1.63
2022-11-03T00:14:02.620Z,2.65
2022-11-03T00:16:30.892Z,1.90
2022-11-03T00:19:00.308Z,2.20
2022-11-03T00:21:28.546Z,1.55
2022-11-03T00:23:56.313Z,1.90
2022-11-03T00:26:25.427Z,1.60
2022-11-03T00:28:54.733Z,1.92
2022-11-03T00:31:24.198Z,1.63
2022-11-03T00:33:52.645Z,1.80
2022-11-03T00:36:23.842Z,2.00
2022-11-03T00:38:52.214Z,2.00
2022-11-03T00:41:21.270Z,1.90
2022-11-03T00:43:49.785Z,1.80
2022-11-03T00:46:18.507Z,1.70
2022-11-03T00:48:46.319Z,2.53
2022-11-03T00:51:16.059Z,1.75
2022-11-03T00:53:46.650Z,2.20
2022-11-03T00:56:15.897Z,1.80
2022-11-03T00:58:44.203Z,1.60
2022-11-03T01:01:14.299Z,1.75
2022-11-03T01:04:05.705Z,1.75
2022-11-03T01:06:52.023Z,2.10
2022-11-03T01:09:22.868Z,1.83
2022-11-03T01:11:57.507Z,1.90
2022-11-03T01:14:26.455Z,2.13
2022-11-03T01:16:54.216Z,2.10
2022-11-03T01:19:22.244Z,1.95
2022-11-03T01:21:49.973Z,2.03
2022-11-03T01:24:17.798Z,2.40
2022-11-03T01:26:47.024Z,1.80
2022-11-03T01:29:14.979Z,2.10
2022-11-03T01:31:43.009Z,1.75
2022-11-03T01:34:15.054Z,2.20
2022-11-03T01:36:42.843Z,2.80
2022-11-03T01:39:12.113Z,2.28
2022-11-03T01:41:40.378Z,1.70
2022-11-03T01:44:30.806Z,1.90
2022-11-03T01:47:11.663Z,1.92
2022-11-03T01:49:44.633Z,2.10
2022-11-03T01:52:17.446Z,1.75
2022-11-03T01:54:49.403Z,1.88
2022-11-03T01:57:20.986Z,1.90
2022-11-03T01:59:50.660Z,1.95
2022-11-03T02:02:25.210Z,1.70
2022-11-03T02:04:53.218Z,2.00
2022-11-03T02:07:25.986Z,1.70
2022-11-03T02:09:53.723Z,2.17
2022-11-03T02:12:22.944Z,1.92
2022-11-03T02:14:55.709Z,2.00
2022-11-03T02:17:26.807Z,2.33
2022-11-03T02:19:59.169Z,1.60
2022-11-03T02:22:37.066Z,1.60
2022-11-03T02:25:14.951Z,1.90
2022-11-03T02:27:44.782Z,1.80
2022-11-03T02:30:13.004Z,1.85
2022-11-03T02:32:49.300Z,2.00
2022-11-03T02:35:24.301Z,2.53
2022-11-03T02:37:56.294Z,1.70
2022-11-03T02:40:30.496Z,1.92
2022-11-03T02:43:01.641Z,2.03
2022-11-03T02:45:30.114Z,2.00
2022-11-03T02:48:01.919Z,2.08
2022-11-03T02:50:30.909Z,1.63
2022-11-03T02:52:58.760Z,2.47
2022-11-03T02:55:34.842Z,2.17
2022-11-03T02:58:13.037Z,2.20
2022-11-03T03:00:47.472Z,1.95
2022-11-03T03:03:21.367Z,1.90
2022-11-03T03:05:52.533Z,1.80
2022-11-03T03:08:23.310Z,1.90
2022-11-03T03:10:52.812Z,2.53
2022-11-03T03:13:24.878Z,2.17
2022-11-03T03:16:06.629Z,1.70
2022-11-03T03:18:48.921Z,1.90
2022-11-03T03:21:22.053Z,1.95
2022-11-03T03:23:54.709Z,1.90
2022-11-03T03:26:27.441Z,3.47
2022-11-03T03:28:59.924Z,1.75
2022-11-03T03:31:30.590Z,1.75
2022-11-03T03:34:10.324Z,1.60
2022-11-03T03:36:47.926Z,1.98
2022-11-03T03:39:17.744Z,2.10
2022-11-03T03:41:46.781Z,1.92
2022-11-03T03:44:17.308Z,2.13
2022-11-03T03:46:50.390Z,2.13
2022-11-03T03:49:18.302Z,1.90
2022-11-03T03:51:47.610Z,2.40
2022-11-03T03:54:15.371Z,2.30
2022-11-03T03:56:47.269Z,2.30
2022-11-03T03:59:16.504Z,2.05
2022-11-03T04:01:44.488Z,2.05
2022-11-03T04:04:12.291Z,1.98
2022-11-03T04:06:40.052Z,2.45
2022-11-03T04:09:07.827Z,2.80
2022-11-03T04:11:53.207Z,2.42
2022-11-03T04:14:40.121Z,2.22
2022-11-03T04:17:37.222Z,2.40
2022-11-03T04:20:23.108Z,2.50
2022-11-03T04:22:50.846Z,2.03
2022-11-03T04:25:18.561Z,2.03
2022-11-03T04:27:46.342Z,2.10
2022-11-03T04:30:17.811Z,2.05
2022-11-03T04:32:47.069Z,2.28
2022-11-03T04:35:17.678Z,2.22
2022-11-03T04:37:47.852Z,2.40
2022-11-03T04:40:17.765Z,1.92
2022-11-03T04:42:46.249Z,2.10
2022-11-03T04:45:23.305Z,2.20
2022-11-03T04:47:51.449Z,2.42
2022-11-03T04:50:20.617Z,2.42
2022-11-03T04:52:49.230Z,1.92
2022-11-03T04:55:18.654Z,2.03
2022-11-03T04:57:46.610Z,1.92
2022-11-03T05:00:20.524Z,1.92
2022-11-03T05:02:53.101Z,2.25
2022-11-03T05:05:24.972Z,2.08
2022-11-03T05:07:54.357Z,1.90
2022-11-03T05:10:25.462Z,2.00
2022-11-03T05:12:54.567Z,2.42
2022-11-03T05:15:32.559Z,2.50
2022-11-03T05:18:01.231Z,1.98
2022-11-03T05:20:35.972Z,2.10
2022-11-03T05:23:06.101Z,2.00
2022-11-03T05:25:40.951Z,2.00
2022-11-03T05:28:27.448Z,2.42
2022-11-03T05:30:57.246Z,1.67
2022-11-03T05:33:30.237Z,2.03
2022-11-03T05:36:01.696Z,2.58
2022-11-03T05:38:32.279Z,2.50
2022-11-03T05:41:00.952Z,2.00
2022-11-03T05:43:29.781Z,2.08
2022-11-03T05:46:02.519Z,2.05
2022-11-03T05:48:34.494Z,1.90
2022-11-03T05:51:11.945Z,2.03
2022-11-03T05:53:43.204Z,2.15
2022-11-03T05:56:17.319Z,1.98
2022-11-03T05:58:46.042Z,2.38
2022-11-03T06:01:22.105Z,1.98
2022-11-03T06:03:50.020Z,2.10
2022-11-03T06:06:21.619Z,1.90
2022-11-03T06:08:50.315Z,1.60
2022-11-03T06:11:25.599Z,2.08
2022-11-03T06:13:53.786Z,2.35
2022-11-03T06:16:39.673Z,1.77
2022-11-03T06:19:20.622Z,2.15
2022-11-03T06:21:50.119Z,1.70
2022-11-03T06:24:20.863Z,1.85
2022-11-03T06:26:50.871Z,2.20
2022-11-03T06:29:21.340Z,2.88
2022-11-03T06:31:53.652Z,1.90
2022-11-03T06:34:38.460Z,2.20
2022-11-03T06:37:23.412Z,1.83
2022-11-03T06:39:54.752Z,2.42
2022-11-03T06:42:25.631Z,2.05
2022-11-03T06:44:57.161Z,2.33
2022-11-03T06:47:28.456Z,2.05
2022-11-03T06:49:59.122Z,2.30
2022-11-03T06:52:30.409Z,2.22
2022-11-03T06:55:17.050Z,2.20
2022-11-03T06:57:48.147Z,2.33
2022-11-03T07:00:40.184Z,2.22
2022-11-03T07:03:14.846Z,2.17
2022-11-03T07:05:45.109Z,2.03
2022-11-03T07:08:21.791Z,2.05
2022-11-03T07:10:51.796Z,3.40
2022-11-03T07:13:24.405Z,1.90
2022-11-03T07:15:52.766Z,1.70
2022-11-03T07:18:24.924Z,2.00
2022-11-03T07:20:54.480Z,1.92
2022-11-03T07:23:25.477Z,2.00
2022-11-03T07:25:55.008Z,1.98
2022-11-03T07:28:30.882Z,1.95
2022-11-03T07:31:00.913Z,1.80
2022-11-03T07:33:32.292Z,1.73
2022-11-03T07:36:14.918Z,2.20
2022-11-03T07:38:45.404Z,1.92
2022-11-03T07:41:18.285Z,2.28
2022-11-03T07:43:52.472Z,1.85
2022-11-03T07:46:22.644Z,2.10
2022-11-03T07:48:55.096Z,1.75
2022-11-03T07:51:25.031Z,1.92
2022-11-03T07:53:55.993Z,1.98
2022-11-03T07:56:25.978Z,1.50
2022-11-03T07:58:57.158Z,1.83
2022-11-03T08:01:28.291Z,2.08
2022-11-03T08:04:01.338Z,1.52
2022-11-03T08:06:29.248Z,2.35
2022-11-03T08:08:57.128Z,1.80
2022-11-03T08:11:28.017Z,2.65
2022-11-03T08:13:57.873Z,1.80
2022-11-03T08:16:25.694Z,2.03
2022-11-03T08:18:53.550Z,1.98
2022-11-03T08:21:22.691Z,2.15
2022-11-03T08:23:51.676Z,1.95
2022-11-03T08:26:19.608Z,3.17
2022-11-03T08:28:47.460Z,1.75
2022-11-03T08:31:15.307Z,2.13
2022-11-03T08:33:43.115Z,1.50
2022-11-03T08:36:11.753Z,1.95
2022-11-03T08:38:41.017Z,1.80
2022-11-03T08:41:08.863Z,2.00
2022-11-03T08:43:36.929Z,2.08
2022-11-03T08:46:13.847Z,1.73
2022-11-03T08:48:45.065Z,1.73
2022-11-03T08:51:13.859Z,1.50
2022-11-03T08:53:43.850Z,1.50
2022-11-03T08:56:13.442Z,1.90
2022-11-03T08:58:43.392Z,2.33
2022-11-03T09:01:11.376Z,2.00
2022-11-03T09:03:39.735Z,1.80
2022-11-03T09:06:08.321Z,2.08
2022-11-03T09:11:25.487Z,2.17
2022-11-03T09:13:53.323Z,1.77
2022-11-03T09:16:21.156Z,1.92
2022-11-03T09:18:49.021Z,2.75
2022-11-03T09:21:16.907Z,2.00
2022-11-03T09:23:44.778Z,1.58
2022-11-03T09:26:12.613Z,1.40
2022-11-03T09:28:41.793Z,1.88
2022-11-03T09:31:09.703Z,4.72
2022-11-03T09:33:37.619Z,1.83
2022-11-03T09:36:05.692Z,1.77
2022-11-03T09:38:33.512Z,2.05
2022-11-03T09:41:04.533Z,1.90
2022-11-03T09:43:37.710Z,2.25
2022-11-03T09:46:07.080Z,1.70
2022-11-03T09:48:34.931Z,1.83
2022-11-03T09:51:02.773Z,1.75
2022-11-03T09:53:31.472Z,1.80
2022-11-03T09:55:59.339Z,1.50
2022-11-03T09:58:27.458Z,1.70
2022-11-03T10:00:55.352Z,2.20
2022-11-03T10:03:24.615Z,2.00
2022-11-03T10:05:52.524Z,1.48
2022-11-03T10:08:25.118Z,1.70
2022-11-03T10:10:53.732Z,1.80
2022-11-03T10:13:26.382Z,1.85
2022-11-03T10:15:54.330Z,2.05
2022-11-03T10:18:22.290Z,1.85
2022-11-03T10:20:51.420Z,2.03
2022-11-03T10:23:19.269Z,1.95
2022-11-03T10:25:47.457Z,1.60
2022-11-03T10:28:18.248Z,2.00
2022-11-03T10:31:11.258Z,1.88
2022-11-03T10:33:40.796Z,1.35
2022-11-03T10:36:24.104Z,1.70
2022-11-03T10:38:52.156Z,1.95
2022-11-03T10:41:21.544Z,1.58
2022-11-03T10:44:02.913Z,2.03
2022-11-03T10:49:21.086Z,1.73
2022-11-03T10:51:52.428Z,1.65
2022-11-03T10:54:22.541Z,1.60
2022-11-03T10:56:51.686Z,1.50
2022-11-03T10:59:21.684Z,2.13
2022-11-03T11:01:50.013Z,1.80
2022-11-03T11:04:19.120Z,1.85
2022-11-03T11:06:47.960Z,1.52
2022-11-03T11:09:22.322Z,1.85
2022-11-03T11:12:04.841Z,1.98
2022-11-03T11:14:39.229Z,1.60
2022-11-03T11:17:27.532Z,1.80
2022-11-03T11:20:35.110Z,1.63
2022-11-03T11:23:49.137Z,1.58
2022-11-03T11:26:34.071Z,1.75
2022-11-03T11:29:46.425Z,2.05
2022-11-03T11:32:47.556Z,1.90
2022-11-03T11:35:19.030Z,1.80
2022-11-03T11:37:46.864Z,2.20
2022-11-03T11:40:35.820Z,1.73
2022-11-03T11:43:27.881Z,1.42
2022-11-03T11:46:33.406Z,1.63
2022-11-03T11:49:19.342Z,2.00
2022-11-03T11:51:47.755Z,1.90
2022-11-03T11:54:20.659Z,1.88
2022-11-03T11:56:50.870Z,2.03
2022-11-03T11:59:25.849Z,2.00
2022-11-03T12:01:56.851Z,1.60
2022-11-03T12:04:28.985Z,2.13
2022-11-03T12:06:57.610Z,2.05
2022-11-03T12:09:27.511Z,1.63
2022-11-03T12:11:59.371Z,1.83
2022-11-03T12:14:36.210Z,2.40
2022-11-03T12:17:35.025Z,1.92
2022-11-03T12:20:40.531Z,2.38
2022-11-03T12:23:09.679Z,1.90
2022-11-03T12:25:40.069Z,1.65
2022-11-03T12:28:08.102Z,1.95
2022-11-03T12:30:40.101Z,2.33
2022-11-03T12:33:08.863Z,1.80
2022-11-03T12:35:36.895Z,1.80
2022-11-03T12:38:04.762Z,1.92
2022-11-03T12:40:33.935Z,2.92
2022-11-03T12:43:01.760Z,2.42
2022-11-03T12:45:29.624Z,2.10
2022-11-03T12:47:57.505Z,2.78
2022-11-03T12:50:25.333Z,2.13
2022-11-03T12:52:53.190Z,1.80
2022-11-03T12:55:21.064Z,2.00
2022-11-03T12:57:50.214Z,2.10
2022-11-03T13:00:18.524Z,2.30
2022-11-03T13:02:47.003Z,1.98
2022-11-03T13:05:15.454Z,2.38
2022-11-03T13:07:43.690Z,2.38
2022-11-03T13:10:11.745Z,2.03
2022-11-03T13:12:41.463Z,2.33
2022-11-03T13:15:13.602Z,2.00
2022-11-03T13:18:07.020Z,2.28
2022-11-03T13:20:29.331Z,1.98
2022-11-03T13:22:57.198Z,2.28
2022-11-03T13:25:25.278Z,2.00
2022-11-03T13:27:54.701Z,1.90
2022-11-03T13:30:24.733Z,2.17
2022-11-03T13:32:52.840Z,2.03
2022-11-03T13:35:21.422Z,1.88
2022-11-03T13:37:49.795Z,1.90
2022-11-03T13:40:42.705Z,1.83
2022-11-03T13:43:07.560Z,1.92
2022-11-03T13:45:36.903Z,2.05
2022-11-03T13:50:53.729Z,1.63
2022-11-03T13:56:11.605Z,1.92
2022-11-03T14:01:30.622Z,1.98
2022-11-03T14:06:46.765Z,2.40
2022-11-03T14:09:14.589Z,1.55
2022-11-03T14:12:00.140Z,2.03
2022-11-03T14:14:27.938Z,1.77
2022-11-03T14:16:57.271Z,2.20
2022-11-03T14:19:33.335Z,1.92
2022-11-03T14:22:04.798Z,2.08
2022-11-03T14:24:32.621Z,2.17
2022-11-03T14:27:00.545Z,1.80
2022-11-03T14:29:28.428Z,2.00
2022-11-03T14:31:57.578Z,2.28
2022-11-03T14:34:25.495Z,1.90
2022-11-03T14:36:53.458Z,1.50
2022-11-03T14:39:21.322Z,2.03
2022-11-03T14:42:03.397Z,2.00
2022-11-03T14:44:31.458Z,2.00
2022-11-03T14:47:01.624Z,1.88
2022-11-03T14:49:29.539Z,1.75
2022-11-03T14:51:58.109Z,1.98
2022-11-03T14:54:26.501Z,2.00
2022-11-03T14:56:54.468Z,2.00
2022-11-03T14:59:23.094Z,2.05
2022-11-03T15:01:52.463Z,1.90
2022-11-03T15:04:22.005Z,1.75
2022-11-03T15:06:50.060Z,1.75
2022-11-03T15:09:18.298Z,1.70
2022-11-03T15:11:46.435Z,2.20
2022-11-03T15:14:14.495Z,1.70
2022-11-03T15:16:42.952Z,1.75
2022-11-03T15:19:10.788Z,1.90
2022-11-03T15:21:39.912Z,1.83
2022-11-03T15:26:56.064Z,1.92
2022-11-03T15:29:24.388Z,1.83
2022-11-03T15:31:52.232Z,2.25
2022-11-03T15:34:20.124Z,2.33
2022-11-03T15:36:49.360Z,2.22
2022-11-03T15:39:17.868Z,2.15
2022-11-03T15:41:45.689Z,2.45
2022-11-03T15:44:13.465Z,2.03
2022-11-03T15:46:41.380Z,2.40
2022-11-03T15:49:09.202Z,2.50
2022-11-03T15:51:36.960Z,1.83
2022-11-03T15:54:06.302Z,2.65
2022-11-03T15:56:34.152Z,2.17
2022-11-03T15:59:02.039Z,2.40
2022-11-03T16:01:29.991Z,2.10
2022-11-03T16:03:57.911Z,2.28
2022-11-03T16:06:46.462Z,2.78
2022-11-03T16:09:14.920Z,2.47
2022-11-03T16:11:42.777Z,1.98
2022-11-03T16:14:10.637Z,2.08
2022-11-03T16:16:38.442Z,2.20
2022-11-03T16:19:06.272Z,2.83
2022-11-03T16:21:34.102Z,2.15
2022-11-03T16:24:01.999Z,1.90
2022-11-03T16:26:31.558Z,2.03
2022-11-03T16:28:59.452Z,2.25
2022-11-03T16:31:27.622Z,2.45
2022-11-03T16:33:55.421Z,2.53
2022-11-03T16:36:23.264Z,2.05
2022-11-03T16:38:51.140Z,2.60
2022-11-03T16:41:18.996Z,2.45
2022-11-03T16:43:49.736Z,2.40
2022-11-03T16:46:17.682Z,2.85
2022-11-03T16:48:45.623Z,2.28
2022-11-03T16:51:13.749Z,2.45
2022-11-03T16:53:41.531Z,2.80
2022-11-03T16:56:09.317Z,2.42
2022-11-03T16:58:37.421Z,2.17
2022-11-03T17:01:07.140Z,1.70
2022-11-03T17:03:35.082Z,2.17
2022-11-03T17:06:02.902Z,2.63
2022-11-03T17:11:35.608Z,2.17
2022-11-03T17:14:07.735Z,2.15
2022-11-03T17:16:36.896Z,2.83
2022-11-03T17:19:04.700Z,2.53
2022-11-03T17:21:32.498Z,3.00
2022-11-03T17:24:00.339Z,2.38
2022-11-03T17:26:35.632Z,2.92
2022-11-03T17:29:06.122Z,2.67
2022-11-03T17:31:34.018Z,2.53
2022-11-03T17:34:03.643Z,2.58
2022-11-03T17:36:31.503Z,2.65
2022-11-03T17:38:59.426Z,2.85
2022-11-03T17:41:27.329Z,2.58
2022-11-03T17:43:55.138Z,2.70
2022-11-03T17:46:23.130Z,2.53
2022-11-03T17:48:50.948Z,2.65
2022-11-03T17:51:20.122Z,2.13
2022-11-03T17:53:48.110Z,2.60
2022-11-03T17:56:33.935Z,2.63
2022-11-03T17:59:02.006Z,2.42
2022-11-03T18:01:30.025Z,2.83
2022-11-03T18:03:58.452Z,2.85
2022-11-03T18:06:27.633Z,2.88
2022-11-03T18:08:55.445Z,2.70
2022-11-03T18:11:44.644Z,2.78
2022-11-03T18:14:12.956Z,2.25
2022-11-03T18:16:41.534Z,2.50
2022-11-03T18:19:12.363Z,2.22
2022-11-03T18:21:41.877Z,2.25
2022-11-03T18:24:13.632Z,2.40
2022-11-03T18:26:41.752Z,2.28
2022-11-03T18:29:09.855Z,2.35
2022-11-03T18:31:41.182Z,2.90
2022-11-03T18:34:15.683Z,2.35
2022-11-03T18:36:45.073Z,2.13
2022-11-03T18:39:20.024Z,3.10
2022-11-03T18:41:47.974Z,2.80
2022-11-03T18:44:20.083Z,3.03
2022-11-03T18:46:48.826Z,2.15
2022-11-03T18:49:16.891Z,2.28
2022-11-03T18:51:49.469Z,2.40
2022-11-03T18:54:20.579Z,1.73
2022-11-03T18:56:48.953Z,1.95
2022-11-03T18:59:21.615Z,2.35
2022-11-03T19:01:49.854Z,2.10
2022-11-03T19:04:17.942Z,2.00
2022-11-03T19:06:48.691Z,2.30
2022-11-03T19:09:20.018Z,1.92
2022-11-03T19:11:49.726Z,1.83
2022-11-03T19:14:23.702Z,1.77
2022-11-03T19:19:41.462Z,2.40
2022-11-03T19:22:14.868Z,2.92
2022-11-03T19:24:42.784Z,2.38
2022-11-03T19:27:16.924Z,2.30
2022-11-03T19:29:46.801Z,2.58
2022-11-03T19:32:20.476Z,2.53
2022-11-03T19:34:52.371Z,2.55
2022-11-03T19:37:21.614Z,2.58
2022-11-03T19:39:49.476Z,3.00
2022-11-03T19:42:32.929Z,2.90
2022-11-03T19:45:02.425Z,2.70
2022-11-03T19:47:33.223Z,2.80
2022-11-03T19:50:02.345Z,2.80
2022-11-03T19:52:32.561Z,2.97
2022-11-03T19:55:02.707Z,2.80
2022-11-03T19:57:30.501Z,2.75
2022-11-03T19:59:59.085Z,3.00
2022-11-03T20:02:28.469Z,2.63
2022-11-03T20:04:56.432Z,3.40
2022-11-03T20:07:30.919Z,2.90
2022-11-03T20:10:02.223Z,2.92
2022-11-03T20:12:30.850Z,2.42
2022-11-03T20:14:58.771Z,2.55
2022-11-03T20:17:27.160Z,2.67
2022-11-03T20:19:55.038Z,2.55
2022-11-03T20:22:28.546Z,3.08
2022-11-03T20:24:59.151Z,2.90
2022-11-03T20:27:28.795Z,2.90
2022-11-03T20:29:57.037Z,3.20
2022-11-03T20:32:24.904Z,2.60
2022-11-03T20:34:52.734Z,3.50
2022-11-03T20:37:21.804Z,2.85
2022-11-03T20:39:49.873Z,2.50
2022-11-03T20:42:21.264Z,2.90
2022-11-03T20:44:50.866Z,2.85
2022-11-03T20:47:19.267Z,3.00
2022-11-03T20:49:47.598Z,2.88
2022-11-03T20:52:16.388Z,3.10
2022-11-03T20:54:44.734Z,2.83
2022-11-03T20:57:13.911Z,2.60
2022-11-03T20:59:42.230Z,2.70
2022-11-03T21:02:13.528Z,2.85
2022-11-03T21:04:43.062Z,2.80
2022-11-03T21:07:12.736Z,2.97
2022-11-03T21:09:40.775Z,3.08
2022-11-03T21:12:13.803Z,3.72
2022-11-03T21:15:03.952Z,2.63
2022-11-03T21:17:50.627Z,2.83
2022-11-03T21:20:18.509Z,2.95
2022-11-03T21:22:52.510Z,3.28
2022-11-03T21:25:22.976Z,3.00
2022-11-03T21:27:51.044Z,2.60
2022-11-03T21:30:19.592Z,3.00
2022-11-03T21:32:48.811Z,2.80
2022-11-03T21:35:19.510Z,2.85
2022-11-03T21:37:47.834Z,2.97
2022-11-03T21:40:16.008Z,3.22
2022-11-03T21:43:01.418Z,3.28
2022-11-03T21:45:29.353Z,3.33
2022-11-03T21:48:16.905Z,3.00
2022-11-03T21:50:45.364Z,3.28
2022-11-03T21:53:13.416Z,3.30
2022-11-03T21:55:41.544Z,2.70
2022-11-03T21:58:09.323Z,3.15
2022-11-03T22:00:37.348Z,3.00
2022-11-03T22:03:06.918Z,3.15
2022-11-03T22:05:34.892Z,3.10
2022-11-03T22:08:02.727Z,3.22
2022-11-03T22:10:30.455Z,3.17
2022-11-03T22:12:58.178Z,3.38
2022-11-03T22:15:43.405Z,3.42
2022-11-03T22:18:12.959Z,3.90
2022-11-03T22:20:58.751Z,3.42
2022-11-03T22:23:44.250Z,3.33
2022-11-03T22:26:36.661Z,3.58
2022-11-03T22:29:22.232Z,4.03
2022-11-03T22:31:49.982Z,3.83
2022-11-03T22:34:36.820Z,4.47
2022-11-03T22:37:04.640Z,3.75
2022-11-03T22:39:50.104Z,3.80
2022-11-03T22:42:35.663Z,4.28
2022-11-03T22:45:21.065Z,3.88
2022-11-03T22:47:48.789Z,4.05
2022-11-03T22:50:17.880Z,3.92
2022-11-03T22:52:45.652Z,3.78
2022-11-03T22:55:12.444Z,3.85
2022-11-03T22:57:40.174Z,4.05
2022-11-03T23:00:09.037Z,4.35
2022-11-03T23:02:36.889Z,3.75
2022-11-03T23:05:05.200Z,4.82
2022-11-03T23:07:40.864Z,3.53
2022-11-03T23:10:09.837Z,3.90
2022-11-03T23:12:37.570Z,4.07
2022-11-03T23:15:24.198Z,3.90
2022-11-03T23:18:06.020Z,3.88
2022-11-03T23:20:51.469Z,3.80
2022-11-03T23:23:34.621Z,3.72
2022-11-03T23:26:02.530Z,4.07
2022-11-03T23:28:30.460Z,4.03
2022-11-03T23:30:58.410Z,4.40
2022-11-03T23:33:26.328Z,4.05
2022-11-03T23:35:54.242Z,4.05
2022-11-03T23:38:23.729Z,4.10
2022-11-03T23:40:51.545Z,4.40
2022-11-03T23:43:19.333Z,4.15
2022-11-03T23:46:04.554Z,4.15
2022-11-03T23:48:47.362Z,3.85
2022-11-03T23:51:16.144Z,3.55
2022-11-03T23:53:46.514Z,4.55
2022-11-03T23:56:34.228Z,3.42
2022-11-03T23:59:02.457Z,4.03
